Nearby METAR Reports

 

KMPO - Mt. Pocono, Pennsylvania, USA
Distance from station: NW 7mi, 12km
Updated: Wed, 28-Oct-2020 5:43am EDT
NOT Current
Light rain, Mist, Overcast
Light rain, Mist, Overcast
 Wind from ESE
Wind: ESE 3 mph , 6 km/h
Temperature: 43°F , 6°C
Dew Point: 43°F , 6°C
Humidity: 100%
Barometer: 30.04 inHg , 1017.3 hPa
Summary: Light rain, Mist
Clouds: Overcast
Visibility: 1 3/4 miles , 2.8 km
Cloud details: Overcast 200 ft
2020/10/28 09:43 KMPO 280943Z AUTO 12003KT 1 3/4SM -RA BR OVC002 06/06 A3004 RMK AO2 P0004 T00560056
K12N - Andover, New Jersey, USA
Distance from station: E 29mi, 47km
Updated: Wed, 28-Oct-2020 6:54am EDT

 Wind from calm
Wind: Calm
Temperature: 48°F , 9°C
Dew Point: 46°F , 8°C
Humidity: 94%
Barometer: 30.05 inHg , 1017.6 hPa
2020/10/28 10:54 K12N 281054Z AUTO 00000KT 09/08 A3005 RMK AO1 SLP178 T00890083
 
KABE - Allentown, Pennsylvania, USA
Distance from station: SSW 29mi, 47km
Updated: Wed, 28-Oct-2020 5:26am EDT
NOT Current
Light rain, Mist, Overcast
Light rain, Mist, Overcast
 Wind from E
Wind: E 6 mph , 9 km/h
Temperature: 50°F , 10°C
Wind Chill: 48°F , 9°C
Dew Point: 48°F , 9°C
Humidity: 94%
Barometer: 30.07 inHg , 1018.3 hPa
Summary: Light rain, Mist
Clouds: Overcast
Visibility: 3 miles , 5 km
Cloud details: Mostly cloudy 400 ft
Mostly cloudy 1000 ft
Overcast 1900 ft
2020/10/28 09:26 KABE 280926Z AUTO 08005KT 3SM -RA BR BKN004 BKN010 OVC019 10/09 A3007
KAVP - Avoca/Wilkes B., Pennsylvania, USA
Distance from station: NW 29mi, 47km
Updated: Wed, 28-Oct-2020 4:54am EDT
NOT Current
Light rain, Mist, Overcast
Light rain, Mist, Overcast
 Wind from calm
Wind: Calm
Temperature: 46°F , 8°C
Dew Point: 45°F , 7°C
Humidity: 93%
Barometer: 30.05 inHg , 1017.6 hPa
Summary: Light rain, Mist
Clouds: Overcast
Visibility: 4 miles , 6 km
Cloud details: Overcast 1800 ft
2020/10/28 08:54 KAVP 280854Z 00000KT 4SM -RA BR OVC018 08/07 A3005 RMK AO2 SLP174 P0006 60013 T00830072 58016
 
KFWN - Sussex, New Jersey, USA
Distance from station: ENE 35mi, 57km
Updated: Wed, 28-Oct-2020 4:53am EDT
NOT Current
Light rain, Overcast
Light rain, Overcast
 Wind from NNE
Wind: NNE 3 mph , 6 km/h
Temperature: 46°F , 8°C
Dew Point: 45°F , 7°C
Humidity: 93%
Barometer: 30.09 inHg , 1019 hPa
Summary: Light rain
Clouds: Overcast
Visibility: 8 miles , 13 km
Cloud details: Mostly cloudy 2100 ft
Overcast 3100 ft
2020/10/28 08:53 KFWN 280853Z AUTO 03003KT 8SM -RA BKN021 OVC031 08/07 A3009 RMK AO2 SLP190 P0001 60004 T00830072 56011
KXLL - Allentown Queen, Pennsylvania, USA
Distance from station: SSW 35mi, 57km
Updated: Wed, 28-Oct-2020 5:35am EDT
NOT Current
Light rain, Overcast
Light rain, Overcast
 Wind from ENE
Wind: ENE 5 mph , 7 km/h
Temperature: 50°F , 10°C
Wind Chill: 48°F , 9°C
Dew Point: 50°F , 10°C
Humidity: 100%
Barometer: 30.08 inHg , 1018.6 hPa
Summary: Light rain
Clouds: Overcast
Visibility: 3 miles , 5 km
Cloud details: Mostly cloudy 200 ft
Overcast 2300 ft
2020/10/28 09:35 KXLL 280935Z AUTO 06004KT 3SM -RA BKN002 OVC023 10/10 A3008 RMK AO2 P0002
 
KUKT - Quakertown Arp, Pennsylvania, USA
Distance from station: S 43mi, 70km
Updated: Wed, 28-Oct-2020 5:35am EDT
NOT Current
Mist, Overcast
Mist, Overcast
 Wind from calm
Wind: Calm
Temperature: 50°F , 10°C
Dew Point: 50°F , 10°C
Humidity: 100%
Barometer: 30.07 inHg , 1018.3 hPa
Summary: Mist
Clouds: Overcast
Visibility: 2 1/2 miles , 4 km
Cloud details: Partly cloudy 400 ft
Overcast 1400 ft
2020/10/28 09:35 KUKT 280935Z AUTO 00000KT 2 1/2SM BR SCT004 OVC014 10/10 A3007 RMK A01
KSMQ - Somerville, New Jersey, USA
Distance from station: SE 44mi, 71km
Updated: Wed, 28-Oct-2020 5:37am EDT
NOT Current
Overcast
Overcast
 Wind from N
Wind: N 5 mph , 7 km/h
Temperature: 52°F , 11°C
Dew Point: 46°F , 8°C
Humidity: 82%
Barometer: 30.07 inHg , 1018.3 hPa
Clouds: Overcast
Visibility: 10 miles , 16 km
Cloud details: Overcast 2900 ft
2020/10/28 09:37 KSMQ 280937Z AUTO 01004KT 10SM OVC029 11/08 A3007 RMK AO2 T01060078
 
KMMU - Morristown Muni, New Jersey, USA
Distance from station: ESE 49mi, 79km
Updated: Wed, 28-Oct-2020 5:35am EDT
NOT Current
Light rain, Overcast
Light rain, Overcast
 Wind from calm
Wind: Calm
Temperature: 48°F , 9°C
Dew Point: 46°F , 8°C
Humidity: 94%
Barometer: 30.09 inHg , 1019 hPa
Summary: Light rain
Clouds: Overcast
Visibility: 3 miles , 5 km
Cloud details: Partly cloudy 2100 ft
Overcast 2600 ft
2020/10/28 09:35 KMMU 280935Z AUTO 00000KT 3SM -RA SCT021 OVC026 09/08 A3009 RMK AO2 P0002